Huvudsida
METAR-TAF:

METAR-TAF

Flygplatser :

Bloemfontein, Sydafrika

latitud: 29-06S, longitud: 026-18E, höjd: 1354 m

Aktuellt väderrapport

Denna rapport gjordes för 54 minuter sedan, klockan 11:00 UTC
Vind 3 kt varierande vindriktning
Temperatur 22°C
Fuktighet 46%
Tryck 1027 hPa
Sikt 10 km eller mer
Spridda moln på en höjd av 2500 ft

METAR: FABL 181100Z VRB03KT 9999 SCT025 22/10 Q1027 NOSIG

Tid: 13:54 (11:54 UTC)

Väderprognos

Denna rapport gjordes för 1 timme och 54 minuter sedan, klockan 10:00 UTC
Prognos gäller från 18 kl. 12 UTC till 19 kl. 12 UTC
Vind 3 kt varierande vindriktning
Sikt 10 km eller mer
Inga moln under 1 500 m eller inga cumulonimbus
Sannolikhet 30% :
Temporärt
från 19 kl. 00 UTC till 19 kl. 05 UTC
Sikt: 2000 m
Brutna moln på en höjd av 800 ft
fuktdis,

TAF: FABL 181000Z 1812/1912 VRB03KT CAVOK TX22/1812Z TN11/1903Z PROB30 TEMPO 1900/1905 2000 BR BKN008

Aktuella väderrapporter och prognoser från 4000 flygplatser (METAR- och TAF-rapporter).

De tillgängliga stationerna syns som gula och röda prickar på kartan.

För musen över prickarna för att se namnen på stationerna.

Klicka sedan för att få väderrapporter och prognoser.

För att ändra kartan: Klicka på de gröna knapparna med ett svart kors på för att zooma in; den gröna knappen med ett streck på för att zooma ut; eller på de gröna pilarna för angränsande kartor.


METAR-TAF: